sensor_id;sensor_type;location;lat;lon;timestamp;P1;durP1;ratioP1;P2;durP2;ratioP2
61385;SDS011;47256;18.904;-99.054;2022-12-24T00:02:11;9.25;;;5.68;;
61385;SDS011;47256;18.904;-99.054;2022-12-24T00:04:38;17.58;;;7.95;;
61385;SDS011;47256;18.904;-99.054;2022-12-24T00:07:06;19.85;;;6.65;;
61385;SDS011;47256;18.904;-99.054;2022-12-24T00:09:33;13.25;;;6.15;;
61385;SDS011;47256;18.904;-99.054;2022-12-24T00:12:10;21.20;;;9.93;;
61385;SDS011;47256;18.904;-99.054;2022-12-24T00:14:42;17.50;;;8.07;;
61385;SDS011;47256;18.904;-99.054;2022-12-24T00:17:19;19.50;;;7.32;;
61385;SDS011;47256;18.904;-99.054;2022-12-24T00:19:46;13.10;;;7.43;;
61385;SDS011;47256;18.904;-99.054;2022-12-24T00:22:19;10.18;;;6.28;;
61385;SDS011;47256;18.904;-99.054;2022-12-24T00:24:47;13.77;;;7.75;;
61385;SDS011;47256;18.904;-99.054;2022-12-24T00:27:15;17.65;;;9.63;;
61385;SDS011;47256;18.904;-99.054;2022-12-24T00:29:43;17.30;;;7.75;;
61385;SDS011;47256;18.904;-99.054;2022-12-24T00:32:14;13.23;;;7.20;;
61385;SDS011;47256;18.904;-99.054;2022-12-24T00:34:43;10.98;;;5.65;;
61385;SDS011;47256;18.904;-99.054;2022-12-24T00:37:10;10.63;;;4.95;;
61385;SDS011;47256;18.904;-99.054;2022-12-24T00:39:37;12.05;;;5.18;;
61385;SDS011;47256;18.904;-99.054;2022-12-24T00:42:04;10.80;;;4.53;;
61385;SDS011;47256;18.904;-99.054;2022-12-24T00:44:36;10.23;;;4.80;;
61385;SDS011;47256;18.904;-99.054;2022-12-24T00:47:05;7.63;;;4.97;;
61385;SDS011;47256;18.904;-99.054;2022-12-24T00:49:34;8.07;;;5.45;;
61385;SDS011;47256;18.904;-99.054;2022-12-24T00:52:01;8.07;;;4.88;;
61385;SDS011;47256;18.904;-99.054;2022-12-24T00:54:28;6.32;;;4.10;;
61385;SDS011;47256;18.904;-99.054;2022-12-24T00:56:56;8.13;;;4.50;;
61385;SDS011;47256;18.904;-99.054;2022-12-24T00:59:24;8.73;;;4.50;;
61385;SDS011;47256;18.904;-99.054;2022-12-24T01:01:51;8.65;;;4.25;;
61385;SDS011;47256;18.904;-99.054;2022-12-24T01:04:18;7.38;;;4.32;;
61385;SDS011;47256;18.904;-99.054;2022-12-24T01:07:05;7.55;;;4.93;;
61385;SDS011;47256;18.904;-99.054;2022-12-24T01:09:33;6.25;;;4.70;;
61385;SDS011;47256;18.904;-99.054;2022-12-24T01:12:00;4.68;;;3.97;;
61385;SDS011;47256;18.904;-99.054;2022-12-24T01:14:28;8.23;;;4.28;;
61385;SDS011;47256;18.904;-99.054;2022-12-24T01:16:56;4.97;;;3.90;;
61385;SDS011;47256;18.904;-99.054;2022-12-24T01:19:29;8.20;;;4.03;;
61385;SDS011;47256;18.904;-99.054;2022-12-24T01:21:58;22.63;;;4.95;;
61385;SDS011;47256;18.904;-99.054;2022-12-24T01:24:28;6.35;;;3.78;;
61385;SDS011;47256;18.904;-99.054;2022-12-24T01:26:56;8.05;;;4.68;;
61385;SDS011;47256;18.904;-99.054;2022-12-24T01:29:25;6.95;;;4.03;;
61385;SDS011;47256;18.904;-99.054;2022-12-24T01:31:52;8.13;;;4.05;;
61385;SDS011;47256;18.904;-99.054;2022-12-24T01:34:22;8.88;;;4.97;;
61385;SDS011;47256;18.904;-99.054;2022-12-24T01:36:49;8.77;;;4.07;;
61385;SDS011;47256;18.904;-99.054;2022-12-24T01:39:19;6.47;;;4.20;;
61385;SDS011;47256;18.904;-99.054;2022-12-24T01:41:47;15.52;;;3.95;;
61385;SDS011;47256;18.904;-99.054;2022-12-24T01:44:40;13.27;;;4.05;;
61385;SDS011;47256;18.904;-99.054;2022-12-24T01:47:44;5.47;;;3.42;;
61385;SDS011;47256;18.904;-99.054;2022-12-24T01:50:12;8.20;;;3.50;;
61385;SDS011;47256;18.904;-99.054;2022-12-24T01:52:43;7.03;;;4.53;;
61385;SDS011;47256;18.904;-99.054;2022-12-24T01:55:14;7.57;;;4.22;;
61385;SDS011;47256;18.904;-99.054;2022-12-24T01:57:51;7.18;;;4.55;;
61385;SDS011;47256;18.904;-99.054;2022-12-24T02:00:22;10.90;;;3.83;;
61385;SDS011;47256;18.904;-99.054;2022-12-24T02:02:49;6.15;;;3.72;;
61385;SDS011;47256;18.904;-99.054;2022-12-24T02:05:26;7.55;;;4.20;;
61385;SDS011;47256;18.904;-99.054;2022-12-24T02:08:03;6.22;;;4.00;;
61385;SDS011;47256;18.904;-99.054;2022-12-24T02:10:39;5.07;;;3.70;;
61385;SDS011;47256;18.904;-99.054;2022-12-24T02:13:08;10.52;;;4.40;;
61385;SDS011;47256;18.904;-99.054;2022-12-24T02:21:47;9.48;;;3.97;;
61385;SDS011;47256;18.904;-99.054;2022-12-24T02:24:27;6.00;;;4.15;;
61385;SDS011;47256;18.904;-99.054;2022-12-24T02:27:21;9.05;;;4.22;;
61385;SDS011;47256;18.904;-99.054;2022-12-24T02:35:59;5.65;;;3.72;;
61385;SDS011;47256;18.904;-99.054;2022-12-24T02:44:24;5.15;;;3.90;;
61385;SDS011;47256;18.904;-99.054;2022-12-24T02:46:55;5.80;;;4.15;;
61385;SDS011;47256;18.904;-99.054;2022-12-24T02:49:25;7.32;;;4.82;;
61385;SDS011;47256;18.904;-99.054;2022-12-24T02:51:52;7.00;;;4.25;;
61385;SDS011;47256;18.904;-99.054;2022-12-24T02:54:20;15.18;;;4.80;;
61385;SDS011;47256;18.904;-99.054;2022-12-24T02:57:02;10.68;;;4.85;;
61385;SDS011;47256;18.904;-99.054;2022-12-24T03:02:35;10.63;;;4.63;;
61385;SDS011;47256;18.904;-99.054;2022-12-24T03:05:14;13.13;;;4.38;;
61385;SDS011;47256;18.904;-99.054;2022-12-24T03:08:17;8.68;;;3.88;;
61385;SDS011;47256;18.904;-99.054;2022-12-24T03:11:11;10.55;;;4.13;;
61385;SDS011;47256;18.904;-99.054;2022-12-24T03:13:42;7.30;;;4.05;;
61385;SDS011;47256;18.904;-99.054;2022-12-24T03:16:11;9.18;;;4.20;;
61385;SDS011;47256;18.904;-99.054;2022-12-24T03:18:45;13.00;;;4.88;;
61385;SDS011;47256;18.904;-99.054;2022-12-24T03:21:26;9.90;;;5.43;;
61385;SDS011;47256;18.904;-99.054;2022-12-24T03:24:21;13.68;;;6.47;;
61385;SDS011;47256;18.904;-99.054;2022-12-24T03:26:49;34.78;;;6.97;;
61385;SDS011;47256;18.904;-99.054;2022-12-24T03:29:20;15.15;;;6.63;;
61385;SDS011;47256;18.904;-99.054;2022-12-24T03:31:52;11.50;;;5.43;;
61385;SDS011;47256;18.904;-99.054;2022-12-24T03:34:28;13.15;;;4.70;;
61385;SDS011;47256;18.904;-99.054;2022-12-24T03:37:00;21.67;;;5.60;;
61385;SDS011;47256;18.904;-99.054;2022-12-24T03:39:30;9.52;;;4.78;;
61385;SDS011;47256;18.904;-99.054;2022-12-24T03:42:00;6.05;;;3.88;;
61385;SDS011;47256;18.904;-99.054;2022-12-24T03:44:31;9.13;;;4.70;;
61385;SDS011;47256;18.904;-99.054;2022-12-24T03:50:01;10.48;;;4.68;;
61385;SDS011;47256;18.904;-99.054;2022-12-24T03:52:58;7.97;;;4.45;;
61385;SDS011;47256;18.904;-99.054;2022-12-24T03:55:28;22.08;;;5.97;;
61385;SDS011;47256;18.904;-99.054;2022-12-24T03:58:01;8.23;;;4.63;;
61385;SDS011;47256;18.904;-99.054;2022-12-24T04:00:31;8.55;;;4.70;;
61385;SDS011;47256;18.904;-99.054;2022-12-24T04:03:05;17.23;;;4.53;;
61385;SDS011;47256;18.904;-99.054;2022-12-24T04:05:38;7.72;;;4.70;;
61385;SDS011;47256;18.904;-99.054;2022-12-24T04:08:08;16.38;;;4.72;;
61385;SDS011;47256;18.904;-99.054;2022-12-24T04:10:41;8.75;;;4.63;;
61385;SDS011;47256;18.904;-99.054;2022-12-24T04:13:12;8.10;;;4.13;;
61385;SDS011;47256;18.904;-99.054;2022-12-24T04:15:54;12.90;;;5.43;;
61385;SDS011;47256;18.904;-99.054;2022-12-24T04:18:25;17.25;;;8.20;;
61385;SDS011;47256;18.904;-99.054;2022-12-24T04:20:56;19.02;;;7.95;;
61385;SDS011;47256;18.904;-99.054;2022-12-24T04:26:26;9.18;;;5.10;;
61385;SDS011;47256;18.904;-99.054;2022-12-24T04:29:04;22.67;;;5.88;;
61385;SDS011;47256;18.904;-99.054;2022-12-24T04:31:35;14.07;;;6.72;;
61385;SDS011;47256;18.904;-99.054;2022-12-24T04:34:04;10.38;;;5.15;;
61385;SDS011;47256;18.904;-99.054;2022-12-24T04:36:36;13.75;;;4.43;;
61385;SDS011;47256;18.904;-99.054;2022-12-24T04:39:06;9.82;;;4.18;;
61385;SDS011;47256;18.904;-99.054;2022-12-24T04:41:40;7.28;;;4.30;;
61385;SDS011;47256;18.904;-99.054;2022-12-24T04:44:10;9.68;;;4.97;;
61385;SDS011;47256;18.904;-99.054;2022-12-24T04:46:43;12.23;;;5.80;;
61385;SDS011;47256;18.904;-99.054;2022-12-24T04:49:19;13.10;;;7.15;;
61385;SDS011;47256;18.904;-99.054;2022-12-24T04:51:50;15.35;;;7.03;;
61385;SDS011;47256;18.904;-99.054;2022-12-24T04:54:19;13.45;;;5.90;;
61385;SDS011;47256;18.904;-99.054;2022-12-24T04:56:49;14.10;;;6.07;;
61385;SDS011;47256;18.904;-99.054;2022-12-24T04:59:24;9.13;;;4.82;;
61385;SDS011;47256;18.904;-99.054;2022-12-24T05:01:54;11.68;;;4.88;;
61385;SDS011;47256;18.904;-99.054;2022-12-24T05:04:23;8.85;;;4.78;;
61385;SDS011;47256;18.904;-99.054;2022-12-24T05:06:54;6.90;;;4.57;;
61385;SDS011;47256;18.904;-99.054;2022-12-24T05:09:22;9.18;;;4.63;;
61385;SDS011;47256;18.904;-99.054;2022-12-24T05:11:57;8.23;;;4.93;;
61385;SDS011;47256;18.904;-99.054;2022-12-24T05:14:27;24.38;;;5.47;;
61385;SDS011;47256;18.904;-99.054;2022-12-24T05:16:54;8.35;;;4.95;;
61385;SDS011;47256;18.904;-99.054;2022-12-24T05:19:24;9.57;;;4.72;;
61385;SDS011;47256;18.904;-99.054;2022-12-24T05:21:53;7.65;;;4.30;;
61385;SDS011;47256;18.904;-99.054;2022-12-24T05:24:39;10.25;;;5.43;;
61385;SDS011;47256;18.904;-99.054;2022-12-24T05:27:26;7.53;;;4.57;;
61385;SDS011;47256;18.904;-99.054;2022-12-24T05:29:53;10.73;;;5.05;;
61385;SDS011;47256;18.904;-99.054;2022-12-24T05:32:26;7.55;;;4.15;;
61385;SDS011;47256;18.904;-99.054;2022-12-24T05:34:54;8.80;;;5.13;;
61385;SDS011;47256;18.904;-99.054;2022-12-24T05:37:25;12.23;;;4.72;;
61385;SDS011;47256;18.904;-99.054;2022-12-24T05:39:54;6.53;;;3.90;;
61385;SDS011;47256;18.904;-99.054;2022-12-24T05:42:23;9.75;;;5.07;;
61385;SDS011;47256;18.904;-99.054;2022-12-24T05:44:50;8.20;;;4.50;;
61385;SDS011;47256;18.904;-99.054;2022-12-24T05:47:24;7.70;;;4.80;;
61385;SDS011;47256;18.904;-99.054;2022-12-24T05:49:51;9.75;;;4.57;;
61385;SDS011;47256;18.904;-99.054;2022-12-24T05:52:18;8.82;;;5.30;;
61385;SDS011;47256;18.904;-99.054;2022-12-24T05:54:45;9.23;;;4.63;;
61385;SDS011;47256;18.904;-99.054;2022-12-24T05:57:13;10.32;;;5.50;;
61385;SDS011;47256;18.904;-99.054;2022-12-24T05:59:42;8.38;;;4.88;;
61385;SDS011;47256;18.904;-99.054;2022-12-24T06:02:09;7.82;;;4.45;;
61385;SDS011;47256;18.904;-99.054;2022-12-24T06:04:44;14.68;;;4.90;;
61385;SDS011;47256;18.904;-99.054;2022-12-24T06:07:12;8.73;;;5.45;;
61385;SDS011;47256;18.904;-99.054;2022-12-24T06:09:39;8.63;;;4.68;;
61385;SDS011;47256;18.904;-99.054;2022-12-24T06:12:07;17.27;;;5.25;;
61385;SDS011;47256;18.904;-99.054;2022-12-24T06:14:35;8.63;;;4.75;;
61385;SDS011;47256;18.904;-99.054;2022-12-24T06:17:02;6.80;;;4.60;;
61385;SDS011;47256;18.904;-99.054;2022-12-24T06:19:34;11.55;;;5.45;;
61385;SDS011;47256;18.904;-99.054;2022-12-24T06:22:04;7.53;;;4.85;;
61385;SDS011;47256;18.904;-99.054;2022-12-24T06:24:33;9.57;;;4.70;;
61385;SDS011;47256;18.904;-99.054;2022-12-24T06:27:02;7.53;;;4.43;;
61385;SDS011;47256;18.904;-99.054;2022-12-24T06:29:30;8.48;;;4.88;;
61385;SDS011;47256;18.904;-99.054;2022-12-24T06:31:58;7.68;;;4.72;;
61385;SDS011;47256;18.904;-99.054;2022-12-24T06:34:27;8.70;;;4.25;;
61385;SDS011;47256;18.904;-99.054;2022-12-24T06:36:55;6.97;;;4.30;;
61385;SDS011;47256;18.904;-99.054;2022-12-24T06:39:22;13.15;;;4.63;;
61385;SDS011;47256;18.904;-99.054;2022-12-24T06:41:51;9.32;;;4.50;;
61385;SDS011;47256;18.904;-99.054;2022-12-24T06:44:20;8.68;;;4.82;;
61385;SDS011;47256;18.904;-99.054;2022-12-24T06:46:51;6.45;;;4.40;;
61385;SDS011;47256;18.904;-99.054;2022-12-24T06:49:21;7.28;;;4.55;;
61385;SDS011;47256;18.904;-99.054;2022-12-24T06:51:48;8.10;;;4.50;;
61385;SDS011;47256;18.904;-99.054;2022-12-24T06:54:17;8.93;;;5.18;;
61385;SDS011;47256;18.904;-99.054;2022-12-24T06:56:44;7.45;;;4.78;;
61385;SDS011;47256;18.904;-99.054;2022-12-24T06:59:14;15.00;;;6.82;;
61385;SDS011;47256;18.904;-99.054;2022-12-24T07:01:42;10.05;;;5.30;;
61385;SDS011;47256;18.904;-99.054;2022-12-24T07:04:09;10.82;;;5.95;;
61385;SDS011;47256;18.904;-99.054;2022-12-24T07:06:39;12.13;;;6.65;;
61385;SDS011;47256;18.904;-99.054;2022-12-24T07:09:07;9.48;;;4.90;;
61385;SDS011;47256;18.904;-99.054;2022-12-24T07:11:39;9.38;;;5.45;;
61385;SDS011;47256;18.904;-99.054;2022-12-24T07:14:07;8.10;;;5.35;;
61385;SDS011;47256;18.904;-99.054;2022-12-24T07:16:36;15.45;;;6.28;;
61385;SDS011;47256;18.904;-99.054;2022-12-24T07:19:03;8.20;;;5.03;;
61385;SDS011;47256;18.904;-99.054;2022-12-24T07:21:32;11.18;;;5.03;;
61385;SDS011;47256;18.904;-99.054;2022-12-24T07:24:00;14.75;;;5.95;;
61385;SDS011;47256;18.904;-99.054;2022-12-24T07:26:29;11.00;;;5.72;;
61385;SDS011;47256;18.904;-99.054;2022-12-24T07:28:56;10.40;;;5.65;;
61385;SDS011;47256;18.904;-99.054;2022-12-24T07:31:24;12.02;;;6.75;;
61385;SDS011;47256;18.904;-99.054;2022-12-24T07:33:51;7.75;;;5.75;;
61385;SDS011;47256;18.904;-99.054;2022-12-24T07:36:20;15.55;;;6.22;;
61385;SDS011;47256;18.904;-99.054;2022-12-24T07:38:47;12.25;;;6.18;;
61385;SDS011;47256;18.904;-99.054;2022-12-24T07:41:17;11.27;;;5.93;;
61385;SDS011;47256;18.904;-99.054;2022-12-24T07:43:44;18.30;;;6.45;;
61385;SDS011;47256;18.904;-99.054;2022-12-24T07:46:15;13.73;;;6.55;;
61385;SDS011;47256;18.904;-99.054;2022-12-24T07:48:42;12.05;;;6.07;;
61385;SDS011;47256;18.904;-99.054;2022-12-24T07:51:09;16.85;;;6.68;;
61385;SDS011;47256;18.904;-99.054;2022-12-24T07:53:39;15.38;;;5.68;;
61385;SDS011;47256;18.904;-99.054;2022-12-24T07:56:14;18.42;;;6.10;;
61385;SDS011;47256;18.904;-99.054;2022-12-24T07:58:42;9.90;;;6.13;;
61385;SDS011;47256;18.904;-99.054;2022-12-24T08:01:10;11.38;;;6.05;;
61385;SDS011;47256;18.904;-99.054;2022-12-24T08:03:37;12.88;;;6.28;;
61385;SDS011;47256;18.904;-99.054;2022-12-24T08:06:06;10.65;;;5.80;;
61385;SDS011;47256;18.904;-99.054;2022-12-24T08:08:33;12.75;;;6.57;;
61385;SDS011;47256;18.904;-99.054;2022-12-24T08:11:02;15.82;;;6.47;;
61385;SDS011;47256;18.904;-99.054;2022-12-24T08:13:32;13.73;;;6.28;;
61385;SDS011;47256;18.904;-99.054;2022-12-24T08:15:59;8.18;;;6.25;;
61385;SDS011;47256;18.904;-99.054;2022-12-24T08:18:28;10.27;;;6.45;;
61385;SDS011;47256;18.904;-99.054;2022-12-24T08:20:55;10.40;;;5.65;;
61385;SDS011;47256;18.904;-99.054;2022-12-24T08:23:31;8.85;;;5.38;;
61385;SDS011;47256;18.904;-99.054;2022-12-24T08:25:58;11.07;;;6.05;;
61385;SDS011;47256;18.904;-99.054;2022-12-24T08:28:25;14.27;;;5.28;;
61385;SDS011;47256;18.904;-99.054;2022-12-24T08:30:53;7.93;;;5.15;;
61385;SDS011;47256;18.904;-99.054;2022-12-24T08:33:20;6.93;;;5.38;;
61385;SDS011;47256;18.904;-99.054;2022-12-24T08:35:49;8.63;;;5.45;;
61385;SDS011;47256;18.904;-99.054;2022-12-24T08:38:17;12.40;;;5.90;;
61385;SDS011;47256;18.904;-99.054;2022-12-24T08:40:46;7.82;;;5.32;;
61385;SDS011;47256;18.904;-99.054;2022-12-24T08:43:17;10.23;;;5.47;;
61385;SDS011;47256;18.904;-99.054;2022-12-24T08:46:14;9.15;;;5.30;;
61385;SDS011;47256;18.904;-99.054;2022-12-24T08:48:43;8.50;;;5.63;;
61385;SDS011;47256;18.904;-99.054;2022-12-24T08:51:10;10.10;;;5.55;;
61385;SDS011;47256;18.904;-99.054;2022-12-24T08:53:37;13.45;;;6.13;;
61385;SDS011;47256;18.904;-99.054;2022-12-24T08:56:08;9.45;;;5.22;;
61385;SDS011;47256;18.904;-99.054;2022-12-24T08:58:38;11.20;;;5.35;;
61385;SDS011;47256;18.904;-99.054;2022-12-24T09:01:13;10.13;;;6.00;;
61385;SDS011;47256;18.904;-99.054;2022-12-24T09:03:43;10.65;;;5.80;;
61385;SDS011;47256;18.904;-99.054;2022-12-24T09:06:11;8.57;;;5.30;;
61385;SDS011;47256;18.904;-99.054;2022-12-24T09:08:39;9.50;;;4.82;;
61385;SDS011;47256;18.904;-99.054;2022-12-24T09:11:10;10.50;;;4.90;;
61385;SDS011;47256;18.904;-99.054;2022-12-24T09:13:43;8.88;;;5.35;;
61385;SDS011;47256;18.904;-99.054;2022-12-24T09:16:10;10.93;;;5.13;;
61385;SDS011;47256;18.904;-99.054;2022-12-24T09:18:38;6.43;;;4.80;;
61385;SDS011;47256;18.904;-99.054;2022-12-24T09:21:10;8.93;;;4.63;;
61385;SDS011;47256;18.904;-99.054;2022-12-24T09:23:42;12.80;;;5.00;;
61385;SDS011;47256;18.904;-99.054;2022-12-24T09:26:12;8.00;;;5.13;;
61385;SDS011;47256;18.904;-99.054;2022-12-24T09:28:41;8.75;;;5.65;;
61385;SDS011;47256;18.904;-99.054;2022-12-24T09:31:09;9.60;;;5.25;;
61385;SDS011;47256;18.904;-99.054;2022-12-24T09:33:38;13.13;;;6.47;;
61385;SDS011;47256;18.904;-99.054;2022-12-24T09:36:07;15.27;;;5.88;;
61385;SDS011;47256;18.904;-99.054;2022-12-24T09:38:37;10.55;;;5.70;;
61385;SDS011;47256;18.904;-99.054;2022-12-24T09:41:21;15.00;;;7.22;;
61385;SDS011;47256;18.904;-99.054;2022-12-24T09:44:34;15.32;;;7.05;;
61385;SDS011;47256;18.904;-99.054;2022-12-24T09:46:49;14.45;;;7.20;;
61385;SDS011;47256;18.904;-99.054;2022-12-24T09:49:25;15.32;;;8.18;;
61385;SDS011;47256;18.904;-99.054;2022-12-24T09:52:06;25.40;;;9.10;;
61385;SDS011;47256;18.904;-99.054;2022-12-24T09:54:40;13.75;;;6.82;;
61385;SDS011;47256;18.904;-99.054;2022-12-24T09:57:29;15.32;;;7.38;;
61385;SDS011;47256;18.904;-99.054;2022-12-24T10:00:03;13.07;;;7.80;;
61385;SDS011;47256;18.904;-99.054;2022-12-24T10:02:35;12.90;;;7.88;;
61385;SDS011;47256;18.904;-99.054;2022-12-24T10:05:05;19.17;;;8.88;;
61385;SDS011;47256;18.904;-99.054;2022-12-24T10:13:12;11.65;;;6.55;;
61385;SDS011;47256;18.904;-99.054;2022-12-24T10:23:36;13.25;;;7.68;;
61385;SDS011;47256;18.904;-99.054;2022-12-24T10:29:33;13.82;;;7.85;;
61385;SDS011;47256;18.904;-99.054;2022-12-24T10:34:42;12.77;;;6.88;;
61385;SDS011;47256;18.904;-99.054;2022-12-24T10:37:16;11.77;;;7.13;;
61385;SDS011;47256;18.904;-99.054;2022-12-24T10:39:49;13.23;;;6.43;;
61385;SDS011;47256;18.904;-99.054;2022-12-24T10:42:17;12.70;;;5.70;;
61385;SDS011;47256;18.904;-99.054;2022-12-24T10:44:54;11.93;;;5.80;;
61385;SDS011;47256;18.904;-99.054;2022-12-24T10:47:27;9.43;;;5.60;;
61385;SDS011;47256;18.904;-99.054;2022-12-24T10:50:03;16.85;;;7.10;;
61385;SDS011;47256;18.904;-99.054;2022-12-24T10:52:48;9.50;;;6.05;;
61385;SDS011;47256;18.904;-99.054;2022-12-24T10:58:01;12.50;;;6.47;;
61385;SDS011;47256;18.904;-99.054;2022-12-24T11:00:32;15.30;;;5.28;;
61385;SDS011;47256;18.904;-99.054;2022-12-24T11:05:37;10.32;;;5.53;;
61385;SDS011;47256;18.904;-99.054;2022-12-24T11:08:15;8.95;;;4.72;;
61385;SDS011;47256;18.904;-99.054;2022-12-24T11:10:53;12.27;;;5.03;;
61385;SDS011;47256;18.904;-99.054;2022-12-24T11:13:33;11.48;;;5.32;;
61385;SDS011;47256;18.904;-99.054;2022-12-24T11:16:28;14.07;;;6.38;;
61385;SDS011;47256;18.904;-99.054;2022-12-24T11:18:57;10.15;;;4.50;;
61385;SDS011;47256;18.904;-99.054;2022-12-24T11:23:57;8.98;;;5.00;;
61385;SDS011;47256;18.904;-99.054;2022-12-24T11:26:31;10.15;;;5.22;;
61385;SDS011;47256;18.904;-99.054;2022-12-24T11:29:10;8.27;;;4.28;;
61385;SDS011;47256;18.904;-99.054;2022-12-24T11:31:48;9.27;;;4.65;;
61385;SDS011;47256;18.904;-99.054;2022-12-24T11:36:49;10.23;;;5.13;;
61385;SDS011;47256;18.904;-99.054;2022-12-24T11:39:20;11.10;;;4.65;;
61385;SDS011;47256;18.904;-99.054;2022-12-24T11:41:49;10.68;;;4.90;;
61385;SDS011;47256;18.904;-99.054;2022-12-24T11:44:25;7.72;;;4.88;;
61385;SDS011;47256;18.904;-99.054;2022-12-24T11:47:01;7.90;;;4.63;;
61385;SDS011;47256;18.904;-99.054;2022-12-24T11:49:30;8.43;;;4.75;;
61385;SDS011;47256;18.904;-99.054;2022-12-24T11:55:02;11.82;;;5.28;;
61385;SDS011;47256;18.904;-99.054;2022-12-24T11:57:51;9.10;;;4.65;;
61385;SDS011;47256;18.904;-99.054;2022-12-24T12:00:24;7.07;;;4.32;;
61385;SDS011;47256;18.904;-99.054;2022-12-24T12:02:55;7.07;;;4.63;;
61385;SDS011;47256;18.904;-99.054;2022-12-24T12:05:29;9.23;;;5.00;;
61385;SDS011;47256;18.904;-99.054;2022-12-24T12:08:09;8.43;;;4.35;;
61385;SDS011;47256;18.904;-99.054;2022-12-24T12:10:43;13.88;;;5.13;;
61385;SDS011;47256;18.904;-99.054;2022-12-24T12:13:16;8.57;;;4.63;;
61385;SDS011;47256;18.904;-99.054;2022-12-24T12:15:50;10.20;;;4.78;;
61385;SDS011;47256;18.904;-99.054;2022-12-24T12:18:38;8.32;;;4.97;;
61385;SDS011;47256;18.904;-99.054;2022-12-24T12:21:19;9.88;;;4.32;;
61385;SDS011;47256;18.904;-99.054;2022-12-24T12:24:02;6.60;;;4.53;;
61385;SDS011;47256;18.904;-99.054;2022-12-24T12:26:40;16.23;;;5.38;;
61385;SDS011;47256;18.904;-99.054;2022-12-24T12:29:26;8.15;;;4.75;;
61385;SDS011;47256;18.904;-99.054;2022-12-24T12:32:05;12.35;;;5.40;;
61385;SDS011;47256;18.904;-99.054;2022-12-24T12:34:39;9.00;;;4.60;;
61385;SDS011;47256;18.904;-99.054;2022-12-24T12:37:30;8.80;;;4.80;;
61385;SDS011;47256;18.904;-99.054;2022-12-24T12:40:13;14.43;;;5.22;;
61385;SDS011;47256;18.904;-99.054;2022-12-24T12:42:51;16.73;;;6.00;;
61385;SDS011;47256;18.904;-99.054;2022-12-24T12:54:20;10.18;;;5.18;;
61385;SDS011;47256;18.904;-99.054;2022-12-24T12:57:08;10.65;;;5.47;;
61385;SDS011;47256;18.904;-99.054;2022-12-24T12:59:40;8.63;;;5.07;;
61385;SDS011;47256;18.904;-99.054;2022-12-24T13:02:24;8.13;;;5.30;;
61385;SDS011;47256;18.904;-99.054;2022-12-24T13:10:41;8.93;;;5.07;;
61385;SDS011;47256;18.904;-99.054;2022-12-24T13:13:49;7.57;;;4.45;;
61385;SDS011;47256;18.904;-99.054;2022-12-24T13:16:44;17.73;;;5.95;;
61385;SDS011;47256;18.904;-99.054;2022-12-24T13:22:14;11.40;;;5.03;;
61385;SDS011;47256;18.904;-99.054;2022-12-24T13:24:49;9.00;;;5.15;;
61385;SDS011;47256;18.904;-99.054;2022-12-24T13:27:26;8.30;;;4.40;;
61385;SDS011;47256;18.904;-99.054;2022-12-24T13:30:30;10.82;;;5.07;;
61385;SDS011;47256;18.904;-99.054;2022-12-24T13:33:12;11.20;;;6.25;;
61385;SDS011;47256;18.904;-99.054;2022-12-24T13:36:05;9.10;;;5.28;;
61385;SDS011;47256;18.904;-99.054;2022-12-24T13:49:27;12.80;;;6.40;;
61385;SDS011;47256;18.904;-99.054;2022-12-24T13:52:23;13.00;;;5.80;;
61385;SDS011;47256;18.904;-99.054;2022-12-24T13:57:46;13.52;;;6.53;;
61385;SDS011;47256;18.904;-99.054;2022-12-24T14:08:10;21.05;;;8.45;;
61385;SDS011;47256;18.904;-99.054;2022-12-24T14:10:44;35.97;;;10.05;;
61385;SDS011;47256;18.904;-99.054;2022-12-24T14:16:11;48.72;;;19.33;;
61385;SDS011;47256;18.904;-99.054;2022-12-24T14:18:47;56.70;;;18.23;;
61385;SDS011;47256;18.904;-99.054;2022-12-24T14:21:36;49.92;;;18.73;;
61385;SDS011;47256;18.904;-99.054;2022-12-24T14:24:13;80.53;;;29.00;;
61385;SDS011;47256;18.904;-99.054;2022-12-24T14:26:52;82.50;;;29.35;;
61385;SDS011;47256;18.904;-99.054;2022-12-24T14:36:19;68.15;;;25.98;;
61385;SDS011;47256;18.904;-99.054;2022-12-24T14:38:55;68.73;;;24.97;;
61385;SDS011;47256;18.904;-99.054;2022-12-24T14:44:29;52.67;;;20.60;;
61385;SDS011;47256;18.904;-99.054;2022-12-24T15:02:49;28.98;;;13.45;;
61385;SDS011;47256;18.904;-99.054;2022-12-24T15:07:55;27.75;;;11.32;;
61385;SDS011;47256;18.904;-99.054;2022-12-24T15:10:32;20.17;;;10.93;;
61385;SDS011;47256;18.904;-99.054;2022-12-24T15:13:07;23.05;;;10.25;;
61385;SDS011;47256;18.904;-99.054;2022-12-24T15:15:42;16.77;;;9.18;;
61385;SDS011;47256;18.904;-99.054;2022-12-24T15:18:23;23.98;;;9.95;;
61385;SDS011;47256;18.904;-99.054;2022-12-24T15:20:56;18.98;;;7.32;;
61385;SDS011;47256;18.904;-99.054;2022-12-24T15:23:34;25.73;;;10.95;;
61385;SDS011;47256;18.904;-99.054;2022-12-24T15:26:07;14.65;;;8.57;;
61385;SDS011;47256;18.904;-99.054;2022-12-24T15:28:39;26.67;;;8.53;;
61385;SDS011;47256;18.904;-99.054;2022-12-24T15:31:11;22.48;;;7.78;;
61385;SDS011;47256;18.904;-99.054;2022-12-24T15:33:43;15.35;;;8.05;;
61385;SDS011;47256;18.904;-99.054;2022-12-24T15:36:15;14.80;;;6.60;;
61385;SDS011;47256;18.904;-99.054;2022-12-24T15:39:03;11.93;;;5.88;;
61385;SDS011;47256;18.904;-99.054;2022-12-24T15:41:38;14.63;;;5.93;;
61385;SDS011;47256;18.904;-99.054;2022-12-24T15:44:32;8.00;;;5.03;;
61385;SDS011;47256;18.904;-99.054;2022-12-24T15:47:03;12.23;;;6.15;;
61385;SDS011;47256;18.904;-99.054;2022-12-24T15:49:43;11.48;;;6.13;;
61385;SDS011;47256;18.904;-99.054;2022-12-24T15:52:18;8.48;;;5.65;;
61385;SDS011;47256;18.904;-99.054;2022-12-24T15:54:50;9.23;;;5.18;;
61385;SDS011;47256;18.904;-99.054;2022-12-24T15:59:58;10.35;;;5.95;;
61385;SDS011;47256;18.904;-99.054;2022-12-24T16:02:37;11.65;;;4.88;;
61385;SDS011;47256;18.904;-99.054;2022-12-24T16:10:40;10.20;;;5.35;;
61385;SDS011;47256;18.904;-99.054;2022-12-24T16:13:28;13.75;;;5.70;;
61385;SDS011;47256;18.904;-99.054;2022-12-24T16:16:00;8.35;;;5.05;;
61385;SDS011;47256;18.904;-99.054;2022-12-24T16:18:49;12.85;;;6.75;;
61385;SDS011;47256;18.904;-99.054;2022-12-24T16:21:27;12.43;;;5.55;;
61385;SDS011;47256;18.904;-99.054;2022-12-24T16:26:42;11.65;;;6.05;;
61385;SDS011;47256;18.904;-99.054;2022-12-24T16:29:10;10.52;;;6.13;;
61385;SDS011;47256;18.904;-99.054;2022-12-24T16:31:52;10.35;;;5.57;;
61385;SDS011;47256;18.904;-99.054;2022-12-24T16:34:25;13.55;;;5.90;;
61385;SDS011;47256;18.904;-99.054;2022-12-24T16:36:58;16.85;;;7.25;;
61385;SDS011;47256;18.904;-99.054;2022-12-24T16:39:29;9.02;;;5.28;;
61385;SDS011;47256;18.904;-99.054;2022-12-24T16:42:07;7.88;;;5.32;;
61385;SDS011;47256;18.904;-99.054;2022-12-24T16:44:55;9.85;;;5.32;;
61385;SDS011;47256;18.904;-99.054;2022-12-24T16:47:28;8.80;;;5.72;;
61385;SDS011;47256;18.904;-99.054;2022-12-24T16:49:59;11.02;;;5.40;;
61385;SDS011;47256;18.904;-99.054;2022-12-24T16:52:29;14.23;;;6.05;;
61385;SDS011;47256;18.904;-99.054;2022-12-24T16:54:59;9.75;;;5.25;;
61385;SDS011;47256;18.904;-99.054;2022-12-24T16:57:32;11.20;;;5.10;;
61385;SDS011;47256;18.904;-99.054;2022-12-24T17:00:01;9.63;;;4.63;;
61385;SDS011;47256;18.904;-99.054;2022-12-24T17:02:30;10.82;;;4.50;;
61385;SDS011;47256;18.904;-99.054;2022-12-24T17:04:59;14.13;;;5.90;;
61385;SDS011;47256;18.904;-99.054;2022-12-24T17:07:26;9.88;;;4.15;;
61385;SDS011;47256;18.904;-99.054;2022-12-24T17:09:53;7.38;;;4.63;;